createdAt,value
2018-07-20T00:01:13.116Z,14.25
2018-07-20T00:03:40.228Z,14.20
2018-07-20T00:06:07.371Z,14.13
2018-07-20T00:08:34.546Z,14.11
2018-07-20T00:11:02.054Z,14.12
2018-07-20T00:13:29.213Z,14.14
2018-07-20T00:15:56.496Z,14.15
2018-07-20T00:18:23.631Z,14.15
2018-07-20T00:20:50.768Z,14.17
2018-07-20T00:23:17.938Z,14.17
2018-07-20T00:25:45.086Z,14.11
2018-07-20T00:28:12.373Z,14.09
2018-07-20T00:30:39.524Z,14.03
2018-07-20T00:33:06.660Z,14.07
2018-07-20T00:35:33.795Z,13.97
2018-07-20T00:38:00.972Z,13.92
2018-07-20T00:40:28.096Z,13.89
2018-07-20T00:42:55.232Z,13.83
2018-07-20T00:45:22.468Z,13.80
2018-07-20T00:47:49.618Z,13.77
2018-07-20T00:50:16.772Z,13.74
2018-07-20T00:52:44.688Z,13.66
2018-07-20T00:55:11.800Z,13.62
2018-07-20T00:57:38.928Z,13.59
2018-07-20T01:00:06.485Z,13.50
2018-07-20T01:02:33.608Z,13.55
2018-07-20T01:05:00.781Z,13.43
2018-07-20T01:07:27.960Z,13.32
2018-07-20T01:09:55.101Z,13.32
2018-07-20T01:12:22.232Z,13.36
2018-07-20T01:14:50.101Z,13.32
2018-07-20T01:17:17.228Z,13.31
2018-07-20T01:19:44.359Z,13.29
2018-07-20T01:22:11.589Z,13.26
2018-07-20T01:24:38.708Z,13.25
2018-07-20T01:27:05.888Z,13.23
2018-07-20T01:29:33.140Z,13.19
2018-07-20T01:32:00.310Z,13.15
2018-07-20T01:34:27.420Z,13.14
2018-07-20T01:36:54.596Z,13.10
2018-07-20T01:39:21.754Z,13.05
2018-07-20T01:41:48.900Z,13.03
2018-07-20T01:44:16.188Z,12.92
2018-07-20T01:46:43.343Z,12.91
2018-07-20T01:49:10.522Z,12.87
2018-07-20T01:51:37.772Z,12.92
2018-07-20T01:54:04.883Z,12.84
2018-07-20T01:56:32.001Z,12.79
2018-07-20T01:58:59.172Z,12.77
2018-07-20T02:01:26.348Z,12.85
2018-07-20T02:03:54.477Z,12.71
2018-07-20T02:06:21.654Z,12.69
2018-07-20T02:08:48.786Z,12.72
2018-07-20T02:11:15.940Z,12.68
2018-07-20T02:13:43.267Z,12.65
2018-07-20T02:16:10.381Z,12.73
2018-07-20T02:18:37.484Z,12.75
2018-07-20T02:21:04.656Z,12.72
2018-07-20T02:23:31.772Z,12.59
2018-07-20T02:25:58.903Z,12.64
2018-07-20T02:28:26.183Z,12.58
2018-07-20T02:30:53.362Z,12.66
2018-07-20T02:33:20.521Z,12.66
2018-07-20T02:35:47.738Z,12.64
2018-07-20T02:38:14.875Z,12.55
2018-07-20T02:40:42.010Z,12.54
2018-07-20T02:43:09.185Z,12.48
2018-07-20T02:45:36.347Z,12.47
2018-07-20T02:48:03.480Z,12.48
2018-07-20T02:50:30.648Z,12.42
2018-07-20T02:52:57.778Z,12.42
2018-07-20T02:55:24.939Z,12.38
2018-07-20T02:57:52.109Z,12.43
2018-07-20T03:00:19.235Z,12.41
2018-07-20T03:02:46.372Z,12.42
2018-07-20T03:05:13.596Z,12.40
2018-07-20T03:07:40.736Z,12.41
2018-07-20T03:10:07.900Z,12.39
2018-07-20T03:12:35.065Z,12.45
2018-07-20T03:15:02.233Z,12.48
2018-07-20T03:17:29.364Z,12.55
2018-07-20T03:19:56.613Z,12.49
2018-07-20T03:22:23.799Z,12.44
2018-07-20T03:24:50.892Z,12.44
2018-07-20T03:27:18.088Z,12.51
2018-07-20T03:29:45.198Z,12.53
2018-07-20T03:32:13.200Z,12.55
2018-07-20T03:34:40.414Z,12.49
2018-07-20T03:37:07.516Z,12.51
2018-07-20T03:39:34.648Z,12.45
2018-07-20T03:42:01.993Z,12.46
2018-07-20T03:44:29.136Z,12.46
2018-07-20T03:46:56.258Z,12.50
2018-07-20T03:49:23.412Z,12.54
2018-07-20T03:51:50.533Z,12.61
2018-07-20T03:54:17.676Z,12.59
2018-07-20T03:56:44.843Z,12.66
2018-07-20T03:59:11.954Z,12.75
2018-07-20T04:01:39.116Z,12.76
2018-07-20T04:04:06.372Z,12.77
2018-07-20T04:06:33.508Z,12.78
2018-07-20T04:09:00.640Z,12.79
2018-07-20T04:11:27.788Z,12.79
2018-07-20T04:13:54.930Z,12.81
2018-07-20T04:16:22.065Z,12.85
2018-07-20T04:18:49.251Z,12.92
2018-07-20T04:21:16.387Z,12.98
2018-07-20T04:23:43.509Z,13.14
2018-07-20T04:26:10.787Z,13.19
2018-07-20T04:28:38.044Z,13.22
2018-07-20T04:31:05.725Z,13.27
2018-07-20T04:33:33.085Z,13.32
2018-07-20T04:36:00.226Z,13.42
2018-07-20T04:38:27.354Z,13.53
2018-07-20T04:40:54.510Z,13.59
2018-07-20T04:43:21.648Z,13.67
2018-07-20T04:45:49.460Z,13.80
2018-07-20T04:48:16.652Z,13.93
2018-07-20T04:50:43.791Z,14.12
2018-07-20T04:53:10.908Z,14.26
2018-07-20T04:55:38.125Z,14.37
2018-07-20T04:58:05.356Z,14.48
2018-07-20T05:00:32.493Z,14.50
2018-07-20T05:02:59.664Z,14.56
2018-07-20T05:05:26.772Z,14.71
2018-07-20T05:07:53.945Z,14.80
2018-07-20T05:10:21.223Z,14.87
2018-07-20T05:12:48.537Z,15.03
2018-07-20T05:15:15.672Z,15.24
2018-07-20T05:17:42.825Z,15.33
2018-07-20T05:20:09.973Z,15.42
2018-07-20T05:22:37.083Z,15.57
2018-07-20T05:25:04.321Z,15.73
2018-07-20T05:27:31.460Z,15.90
2018-07-20T05:29:58.583Z,16.10
2018-07-20T05:32:25.824Z,16.30
2018-07-20T05:34:52.983Z,16.56
2018-07-20T05:37:20.116Z,16.62
2018-07-20T05:39:47.319Z,16.76
2018-07-20T05:42:14.442Z,16.92
2018-07-20T05:44:42.446Z,16.96
2018-07-20T05:47:09.684Z,17.17
2018-07-20T05:49:36.796Z,17.41
2018-07-20T05:52:03.970Z,17.65
2018-07-20T05:54:31.148Z,17.90
2018-07-20T05:56:58.264Z,17.99
2018-07-20T05:59:25.359Z,18.13
2018-07-20T06:01:52.624Z,18.25
2018-07-20T06:04:19.742Z,18.36
2018-07-20T06:06:46.860Z,18.54
2018-07-20T06:09:14.036Z,18.67
2018-07-20T06:11:41.234Z,18.79
2018-07-20T06:14:08.789Z,18.88
2018-07-20T06:16:35.997Z,18.96
2018-07-20T06:19:03.333Z,18.99
2018-07-20T06:21:30.475Z,19.09
2018-07-20T06:23:57.675Z,19.19
2018-07-20T06:26:24.778Z,19.22
2018-07-20T06:28:51.887Z,19.29
2018-07-20T06:31:19.147Z,19.42
2018-07-20T06:33:46.260Z,19.58
2018-07-20T06:36:13.430Z,19.66
2018-07-20T06:38:40.687Z,19.75
2018-07-20T06:41:07.858Z,19.82
2018-07-20T06:43:35.001Z,19.78
2018-07-20T06:46:02.207Z,20.08
2018-07-20T06:48:29.309Z,20.33
2018-07-20T06:50:56.424Z,20.48
2018-07-20T06:53:23.568Z,20.52
2018-07-20T06:55:50.698Z,20.78
2018-07-20T06:58:17.821Z,20.98
2018-07-20T07:00:45.061Z,21.02
2018-07-20T07:03:12.226Z,21.09
2018-07-20T07:05:39.343Z,21.26
2018-07-20T07:08:06.598Z,21.47
2018-07-20T07:10:33.718Z,21.52
2018-07-20T07:13:00.870Z,21.65
2018-07-20T07:15:28.020Z,21.78
2018-07-20T07:17:55.158Z,21.81
2018-07-20T07:20:22.260Z,21.86
2018-07-20T07:22:49.431Z,22.03
2018-07-20T07:25:16.589Z,22.04
2018-07-20T07:27:43.721Z,22.15
2018-07-20T07:30:10.900Z,22.27
2018-07-20T07:32:38.036Z,22.43
2018-07-20T07:35:05.168Z,22.67
2018-07-20T07:37:32.480Z,22.73
2018-07-20T07:39:59.603Z,22.81
2018-07-20T07:42:26.737Z,22.97
2018-07-20T07:44:53.928Z,23.00
2018-07-20T07:47:21.064Z,23.18
2018-07-20T07:49:48.190Z,23.18
2018-07-20T07:52:15.374Z,23.14
2018-07-20T07:54:42.530Z,23.36
2018-07-20T07:57:10.044Z,23.67
2018-07-20T07:59:37.237Z,23.79
2018-07-20T08:02:04.384Z,23.96
2018-07-20T08:04:31.514Z,23.94
2018-07-20T08:06:58.799Z,24.02
2018-07-20T08:09:25.920Z,24.25
2018-07-20T08:11:53.069Z,24.31
2018-07-20T08:14:20.594Z,24.22
2018-07-20T08:16:47.720Z,24.30
2018-07-20T08:19:14.829Z,24.34
2018-07-20T08:21:42.002Z,24.40
2018-07-20T08:24:09.192Z,24.33
2018-07-20T08:26:36.368Z,24.44
2018-07-20T08:29:03.690Z,24.48
2018-07-20T08:31:30.852Z,24.56
2018-07-20T08:33:57.968Z,24.48
2018-07-20T08:36:25.220Z,24.61
2018-07-20T08:38:52.439Z,24.79
2018-07-20T08:41:20.099Z,24.83
2018-07-20T08:43:47.308Z,24.93
2018-07-20T08:46:14.424Z,24.88
2018-07-20T08:48:41.544Z,25.20
2018-07-20T08:51:08.804Z,25.25
2018-07-20T08:53:35.981Z,25.36
2018-07-20T08:56:03.141Z,25.58
2018-07-20T08:58:30.304Z,25.75
2018-07-20T09:00:57.438Z,25.62
2018-07-20T09:03:24.571Z,25.61
2018-07-20T09:05:51.899Z,25.64
2018-07-20T09:08:19.021Z,25.64
2018-07-20T09:10:46.140Z,25.82
2018-07-20T09:13:13.316Z,25.83
2018-07-20T09:15:40.465Z,25.73
2018-07-20T09:18:07.690Z,26.07
2018-07-20T09:20:34.990Z,25.88
2018-07-20T09:23:02.256Z,26.03
2018-07-20T09:25:29.380Z,25.89
2018-07-20T09:27:56.534Z,26.13
2018-07-20T09:30:23.663Z,26.24
2018-07-20T09:32:50.789Z,26.28
2018-07-20T09:35:17.981Z,26.59
2018-07-20T09:37:45.184Z,26.46
2018-07-20T09:40:12.368Z,26.37
2018-07-20T09:42:39.540Z,26.60
2018-07-20T09:45:06.842Z,26.57
2018-07-20T09:47:33.984Z,26.67
2018-07-20T09:50:01.189Z,26.51
2018-07-20T09:52:28.310Z,26.78
2018-07-20T09:54:55.429Z,27.03
2018-07-20T09:57:22.614Z,26.97
2018-07-20T09:59:49.847Z,27.22
2018-07-20T10:02:16.913Z,27.12
2018-07-20T10:04:44.060Z,27.04
2018-07-20T10:07:11.176Z,27.23
2018-07-20T10:09:38.330Z,27.12
2018-07-20T10:12:05.728Z,27.21
2018-07-20T10:14:32.884Z,27.84
2018-07-20T10:17:00.021Z,28.23
2018-07-20T10:19:27.159Z,28.45
2018-07-20T10:21:54.272Z,28.50
2018-07-20T10:24:21.387Z,28.35
2018-07-20T10:26:48.576Z,27.87
2018-07-20T10:29:15.686Z,28.06
2018-07-20T10:31:42.830Z,28.14
2018-07-20T10:34:10.013Z,28.12
2018-07-20T10:36:37.191Z,28.46
2018-07-20T10:39:06.465Z,28.98
2018-07-20T10:41:33.728Z,29.14
2018-07-20T10:44:00.871Z,29.16
2018-07-20T10:46:28.011Z,29.10
2018-07-20T10:48:55.147Z,29.00
2018-07-20T10:51:22.287Z,29.09
2018-07-20T10:53:49.419Z,29.34
2018-07-20T10:56:16.688Z,29.56
2018-07-20T10:58:43.797Z,29.44
2018-07-20T11:01:10.916Z,29.01
2018-07-20T11:03:38.076Z,29.23
2018-07-20T11:06:05.375Z,29.56
2018-07-20T11:08:32.499Z,29.71
2018-07-20T11:10:59.676Z,30.23
2018-07-20T11:13:26.784Z,30.60
2018-07-20T11:15:53.943Z,30.65
2018-07-20T11:18:21.131Z,31.16
2018-07-20T11:20:48.247Z,31.17
2018-07-20T11:23:15.381Z,31.18
2018-07-20T11:25:42.527Z,30.91
2018-07-20T11:28:09.656Z,31.37
2018-07-20T11:30:36.803Z,31.13
2018-07-20T11:33:04.057Z,31.48
2018-07-20T11:35:31.203Z,31.39
2018-07-20T11:37:58.340Z,32.06
2018-07-20T11:40:25.576Z,32.28
2018-07-20T11:42:52.758Z,31.35
2018-07-20T11:45:19.871Z,30.43
2018-07-20T11:47:47.126Z,30.15
2018-07-20T11:50:14.282Z,29.73
2018-07-20T11:52:41.431Z,28.93
2018-07-20T11:55:09.599Z,29.77
2018-07-20T11:57:36.712Z,31.34
2018-07-20T12:00:04.406Z,32.17
2018-07-20T12:02:31.582Z,32.59
2018-07-20T12:04:58.691Z,32.38
2018-07-20T12:07:25.812Z,31.57
2018-07-20T12:09:53.058Z,30.77
2018-07-20T12:12:20.179Z,29.40
2018-07-20T12:14:47.304Z,29.01
2018-07-20T12:17:14.511Z,28.82
2018-07-20T12:19:41.643Z,28.72
2018-07-20T12:22:09.173Z,28.38
2018-07-20T12:24:36.356Z,28.89
2018-07-20T12:27:03.509Z,28.64
2018-07-20T12:29:30.675Z,28.90
2018-07-20T12:31:57.913Z,28.90
2018-07-20T12:34:25.012Z,29.17
2018-07-20T12:36:52.129Z,29.32
2018-07-20T12:39:19.348Z,29.43
2018-07-20T12:41:46.447Z,29.51
2018-07-20T12:44:14.506Z,29.55
2018-07-20T12:46:41.715Z,29.42
2018-07-20T12:49:08.813Z,29.26
2018-07-20T12:51:36.004Z,30.05
2018-07-20T12:54:03.293Z,30.55
2018-07-20T12:56:30.424Z,30.50
2018-07-20T12:58:57.604Z,30.72
2018-07-20T13:01:24.841Z,30.79
2018-07-20T13:03:51.960Z,30.86
2018-07-20T13:06:19.068Z,30.60
2018-07-20T13:08:46.307Z,30.16
2018-07-20T13:11:13.495Z,29.98
2018-07-20T13:13:40.688Z,30.00
2018-07-20T13:16:07.959Z,30.08
2018-07-20T13:18:35.120Z,30.22
2018-07-20T13:21:02.250Z,30.44
2018-07-20T13:23:29.436Z,30.16
2018-07-20T13:25:56.575Z,30.13
2018-07-20T13:28:23.715Z,30.04
2018-07-20T13:30:50.957Z,29.82
2018-07-20T13:33:18.099Z,29.71
2018-07-20T13:35:45.224Z,30.15
2018-07-20T13:38:12.438Z,30.00
2018-07-20T13:40:39.577Z,29.97
2018-07-20T13:43:06.735Z,29.85
2018-07-20T13:45:34.025Z,29.90
2018-07-20T13:48:01.142Z,30.07
2018-07-20T13:50:28.303Z,30.27
2018-07-20T13:52:55.588Z,30.06
2018-07-20T13:55:22.666Z,29.85
2018-07-20T13:57:49.792Z,29.93
2018-07-20T14:00:17.787Z,29.80
2018-07-20T14:02:44.909Z,29.80
2018-07-20T14:05:12.017Z,29.99
2018-07-20T14:07:39.172Z,30.31
2018-07-20T14:10:06.377Z,29.78
2018-07-20T14:12:33.489Z,29.56
2018-07-20T14:15:00.766Z,29.60
2018-07-20T14:17:27.949Z,29.97
2018-07-20T14:19:55.065Z,30.02
2018-07-20T14:22:22.297Z,30.08
2018-07-20T14:24:49.483Z,30.12
2018-07-20T14:27:16.626Z,30.42
2018-07-20T14:29:43.911Z,30.49
2018-07-20T14:32:11.060Z,30.40
2018-07-20T14:34:38.177Z,30.07
2018-07-20T14:37:06.056Z,29.87
2018-07-20T14:39:33.210Z,29.80
2018-07-20T14:42:00.376Z,29.77
2018-07-20T14:44:27.662Z,29.56
2018-07-20T14:46:54.831Z,30.30
2018-07-20T14:49:21.969Z,30.44
2018-07-20T14:51:49.154Z,30.43
2018-07-20T14:54:16.324Z,30.59
2018-07-20T14:56:43.451Z,30.35
2018-07-20T14:59:10.644Z,30.28
2018-07-20T15:01:37.819Z,30.49
2018-07-20T15:04:05.239Z,30.76
2018-07-20T15:06:32.498Z,30.31
2018-07-20T15:08:59.637Z,29.62
2018-07-20T15:11:26.777Z,29.84
2018-07-20T15:13:54.016Z,30.12
2018-07-20T15:16:21.144Z,30.70
2018-07-20T15:18:48.268Z,33.30
2018-07-20T15:21:15.504Z,34.75
2018-07-20T15:23:42.665Z,35.42
2018-07-20T15:26:09.829Z,34.39
2018-07-20T15:28:37.085Z,35.35
2018-07-20T15:31:04.214Z,35.96
2018-07-20T15:33:31.333Z,38.01
2018-07-20T15:35:58.636Z,38.90
2018-07-20T15:38:25.757Z,39.96
2018-07-20T15:40:52.867Z,37.46
2018-07-20T15:43:20.084Z,36.73
2018-07-20T15:45:52.038Z,36.80
2018-07-20T15:48:14.393Z,38.64
2018-07-20T15:50:41.680Z,39.17
2018-07-20T15:53:37.678Z,39.91
2018-07-20T15:55:36.021Z,39.69
2018-07-20T15:58:03.246Z,39.25
2018-07-20T16:00:30.368Z,39.24
2018-07-20T16:02:57.692Z,38.76
2018-07-20T16:05:25.013Z,39.07
2018-07-20T16:07:52.152Z,38.47
2018-07-20T16:10:19.306Z,37.89
2018-07-20T16:12:46.544Z,36.27
2018-07-20T16:15:13.720Z,35.87
2018-07-20T16:17:40.816Z,35.05
2018-07-20T16:20:08.117Z,34.91
2018-07-20T16:22:35.265Z,34.60
2018-07-20T16:25:02.471Z,35.71
2018-07-20T16:27:29.653Z,35.39
2018-07-20T16:29:56.743Z,34.88
2018-07-20T16:32:23.879Z,34.84
2018-07-20T16:34:51.050Z,33.52
2018-07-20T16:37:18.189Z,33.98
2018-07-20T16:39:45.336Z,32.94
2018-07-20T16:42:12.576Z,33.02
2018-07-20T16:44:39.782Z,33.40
2018-07-20T16:47:06.964Z,33.38
2018-07-20T16:49:34.258Z,32.33
2018-07-20T16:52:01.420Z,32.00
2018-07-20T16:54:28.551Z,31.37
2018-07-20T16:56:55.808Z,31.34
2018-07-20T16:59:22.952Z,30.68
2018-07-20T17:01:50.102Z,30.02
2018-07-20T17:04:17.289Z,29.73
2018-07-20T17:06:44.427Z,29.06
2018-07-20T17:09:12.220Z,28.81
2018-07-20T17:11:39.593Z,28.57
2018-07-20T17:14:06.817Z,28.33
2018-07-20T17:16:33.969Z,27.96
2018-07-20T17:19:01.243Z,27.69
2018-07-20T17:21:28.360Z,27.71
2018-07-20T17:23:55.473Z,27.39
2018-07-20T17:26:22.924Z,27.33
2018-07-20T17:28:50.060Z,27.22
2018-07-20T17:31:17.168Z,27.03
2018-07-20T17:33:44.320Z,26.98
2018-07-20T17:36:11.477Z,26.85
2018-07-20T17:38:38.628Z,26.76
2018-07-20T17:41:06.224Z,26.59
2018-07-20T17:43:33.364Z,26.52
2018-07-20T17:46:00.464Z,26.44
2018-07-20T17:48:27.688Z,26.29
2018-07-20T17:50:54.852Z,26.15
2018-07-20T17:53:22.147Z,26.04
2018-07-20T17:55:49.350Z,25.77
2018-07-20T17:58:16.514Z,25.71
2018-07-20T18:00:43.702Z,25.56
2018-07-20T18:03:11.028Z,25.38
2018-07-20T18:05:38.148Z,25.23
2018-07-20T18:08:05.270Z,25.08
2018-07-20T18:10:32.503Z,24.91
2018-07-20T18:12:59.597Z,24.74
2018-07-20T18:15:26.752Z,24.56
2018-07-20T18:17:54.135Z,24.36
2018-07-20T18:20:21.289Z,24.18
2018-07-20T18:22:48.430Z,23.96
2018-07-20T18:25:15.763Z,23.80
2018-07-20T18:27:42.968Z,23.64
2018-07-20T18:30:10.107Z,23.46
2018-07-20T18:32:37.334Z,23.25
2018-07-20T18:35:04.553Z,23.08
2018-07-20T18:37:31.689Z,22.94
2018-07-20T18:39:58.856Z,22.74
2018-07-20T18:42:25.974Z,22.62
2018-07-20T18:44:53.116Z,22.47
2018-07-20T18:47:20.375Z,22.31
2018-07-20T18:49:47.528Z,22.16
2018-07-20T18:52:14.714Z,22.01
2018-07-20T18:54:41.975Z,21.85
2018-07-20T18:57:09.352Z,21.70
2018-07-20T18:59:36.543Z,21.55
2018-07-20T19:02:03.736Z,21.42
2018-07-20T19:04:30.888Z,21.27
2018-07-20T19:06:58.024Z,21.14
2018-07-20T19:09:25.262Z,20.97
2018-07-20T19:11:52.375Z,21.12
2018-07-20T19:14:19.481Z,21.12
2018-07-20T19:16:46.724Z,21.12
2018-07-20T19:19:13.848Z,21.30
2018-07-20T19:21:41.037Z,21.24
2018-07-20T19:24:08.282Z,21.30
2018-07-20T19:26:35.413Z,21.23
2018-07-20T19:29:02.549Z,21.12
2018-07-20T19:31:29.715Z,20.96
2018-07-20T19:33:56.864Z,20.87
2018-07-20T19:36:23.991Z,20.73
2018-07-20T19:38:51.144Z,20.59
2018-07-20T19:41:18.269Z,20.60
2018-07-20T19:43:45.444Z,20.52
2018-07-20T19:46:12.612Z,20.41
2018-07-20T19:48:39.739Z,20.29
2018-07-20T19:51:06.858Z,20.15
2018-07-20T19:53:34.185Z,20.01
2018-07-20T19:56:01.343Z,19.86
2018-07-20T19:58:28.677Z,19.79
2018-07-20T20:00:55.916Z,19.67
2018-07-20T20:03:23.045Z,19.57
2018-07-20T20:05:50.249Z,19.45
2018-07-20T20:08:17.423Z,19.35
2018-07-20T20:10:44.560Z,19.25
2018-07-20T20:13:11.691Z,19.16
2018-07-20T20:15:38.918Z,19.06
2018-07-20T20:18:06.151Z,18.95
2018-07-20T20:20:33.286Z,18.93
2018-07-20T20:23:00.460Z,18.86
2018-07-20T20:25:27.601Z,18.76
2018-07-20T20:27:54.716Z,18.74
2018-07-20T20:30:21.973Z,18.70
2018-07-20T20:32:49.100Z,18.66
2018-07-20T20:35:16.231Z,18.61
2018-07-20T20:37:43.561Z,18.59
2018-07-20T20:40:10.693Z,18.54
2018-07-20T20:42:37.831Z,18.44
2018-07-20T20:45:06.068Z,18.33
2018-07-20T20:47:33.852Z,18.32
2018-07-20T20:50:01.342Z,18.31
2018-07-20T20:52:28.536Z,18.29
2018-07-20T20:54:55.741Z,18.26
2018-07-20T20:57:22.857Z,18.22
2018-07-20T20:59:50.111Z,18.17
2018-07-20T21:02:17.212Z,18.16
2018-07-20T21:04:44.353Z,18.07
2018-07-20T21:07:11.529Z,18.00
2018-07-20T21:09:38.686Z,17.94
2018-07-20T21:12:06.110Z,17.82
2018-07-20T21:14:33.175Z,17.75
2018-07-20T21:17:00.303Z,17.69
2018-07-20T21:19:27.435Z,17.58
2018-07-20T21:21:54.620Z,17.54
2018-07-20T21:24:21.740Z,17.49
2018-07-20T21:26:48.859Z,17.38
2018-07-20T21:29:16.017Z,17.33
2018-07-20T21:31:43.153Z,17.30
2018-07-20T21:34:10.288Z,17.26
2018-07-20T21:36:37.524Z,17.19
2018-07-20T21:39:07.472Z,17.12
2018-07-20T21:41:34.605Z,17.07
2018-07-20T21:44:01.775Z,17.01
2018-07-20T21:46:28.893Z,16.96
2018-07-20T21:48:56.565Z,16.93
2018-07-20T21:51:23.819Z,16.86
2018-07-20T21:53:50.947Z,16.80
2018-07-20T21:56:18.150Z,16.74
2018-07-20T21:58:45.293Z,16.67
2018-07-20T22:01:12.456Z,16.61
2018-07-20T22:03:39.598Z,16.63
2018-07-20T22:06:06.988Z,16.62
2018-07-20T22:08:34.107Z,16.61
2018-07-20T22:11:01.244Z,16.56
2018-07-20T22:13:28.436Z,16.49
2018-07-20T22:15:55.580Z,16.41
2018-07-20T22:18:22.705Z,16.33
2018-07-20T22:20:49.929Z,16.24
2018-07-20T22:23:17.072Z,16.19
2018-07-20T22:25:44.233Z,16.15
2018-07-20T22:28:11.431Z,16.08
2018-07-20T22:30:38.561Z,16.05
2018-07-20T22:33:05.707Z,15.99
2018-07-20T22:35:33.948Z,16.00
2018-07-20T22:38:01.105Z,15.97
2018-07-20T22:40:28.260Z,15.90
2018-07-20T22:42:55.391Z,15.87
2018-07-20T22:45:22.497Z,15.84
2018-07-20T22:47:49.622Z,15.75
2018-07-20T22:50:16.808Z,15.74
2018-07-20T22:52:43.924Z,15.66
2018-07-20T22:55:11.069Z,15.63
2018-07-20T22:57:38.408Z,15.55
2018-07-20T23:00:05.616Z,15.54
2018-07-20T23:02:32.733Z,15.51
2018-07-20T23:04:59.989Z,15.50
2018-07-20T23:07:27.096Z,15.48
2018-07-20T23:09:54.199Z,15.50
2018-07-20T23:12:21.808Z,15.46
2018-07-20T23:14:48.914Z,15.45
2018-07-20T23:17:16.038Z,15.40
2018-07-20T23:19:43.201Z,15.40
2018-07-20T23:22:10.306Z,15.40
2018-07-20T23:24:37.456Z,15.36
2018-07-20T23:27:04.726Z,15.35
2018-07-20T23:29:31.948Z,15.36
2018-07-20T23:31:58.988Z,15.31
2018-07-20T23:34:26.953Z,15.30
2018-07-20T23:36:54.069Z,15.29
2018-07-20T23:39:21.212Z,15.34
2018-07-20T23:41:48.360Z,15.29
2018-07-20T23:44:15.448Z,15.26
2018-07-20T23:46:42.605Z,15.26
2018-07-20T23:49:09.763Z,15.21
2018-07-20T23:51:36.893Z,15.19
2018-07-20T23:54:04.028Z,15.18
2018-07-20T23:56:31.205Z,15.15
2018-07-20T23:58:58.385Z,15.10
